KMKC/MKC METAR and TAF weather

Enter ICAO airport designator
Station Type Date Time Source
KMKC METAR 2019/10/23 01:54 UTC NOAA

KMKC 230154Z 20005KT 10SM CLR 07/01 A2996 RMK AO2 SLP146 T00720011


Station Type Date Time Source
KMKC Decoded METAR 2019/10/23 01:54 UTC NOAA

KANSAS CITY DOWNTOWN AIRPORT , MO, United States (KMKC) 39-07N 094-36W 227M
Oct 22, 2019 - 09:54 PM EDT / 2019.10.23 0154 UTC
Wind: from the SSW (200 degrees) at 6 MPH (5 KT):0
Visibility: 10 mile(s):0
Sky conditions: clear
Temperature: 45.0 F (7.2 C)
Dew Point: 34.0 F (1.1 C)
Relative Humidity: 65%
Pressure (altimeter): 29.96 in. Hg (1014 hPa)
ob: KMKC 230154Z 20005KT 10SM CLR 07/01 A2996 RMK AO2 SLP146 T00720011
cycle: 2

Station Type Date Time Source
KMKC TAF 2019/10/22 18:22 UTC NOAA

TAF KMKC 221720Z 2218/2318 28015G25KT P6SM SKC
FM222300 23008KT P6SM FEW250
FM230800 20005KT P6SM SCT150 WS020/23045KT
FM231300 22011KT P6SM SCT200

Example: see airport list